• Join FlightAware (Why Join?)
  • Login
  • US Flag 
03:04AM EDT


 

Airport Tracker/Info


-or-


 

Live Flight TrackerFlight Track Log ✈ N738GJ ✈ 23-Apr-2014 ✈ KHQZ - KTYR

Flight Track Log - Related Links

Times and Time Zones

All times are in EDT time to prevent confusion due to time zone crossing. See the N738GJ flight status page for this flight to view local times or setup timezone preferences in your user account.

Time Position Orientation Groundspeed Altitude Reporting Facility
EDT Latitude Longitude Course Direction KTS MPH feet Rate Location/Type
12:31PM 32.7333 -96.3500 112° Southeast 104 120 3,400  Level Dallas / Fort Worth TRACON
12:32PM 32.7319 -96.3089 92° East 104 120 3,400  Level Fort Worth Center
12:33PM 32.7236 -96.2789 108° East 101 116 3,500  Climbing Fort Worth Center
12:35PM 32.7017 -96.2561 139° Southeast 97 112 3,500 -120 Level Fort Worth Center
12:36PM 32.6875 -96.2267 120° Southeast 98 113 3,300 -300 Descending Fort Worth Center
12:37PM 32.6671 -96.2982 112° Southeast  Level Estimated
12:37PM 32.6775 -96.1897 108° East 106 122 3,000  Level Fort Worth Center
12:38PM 32.6694 -96.1583 107° East 100 115 2,900  Descending Fort Worth Center
12:39PM 32.6622 -96.1267 105° East 100 115 3,000  Climbing Fort Worth Center
12:40PM 32.6539 -96.0925 106° East 100 115 2,900  Descending Fort Worth Center
12:41PM 32.6419 -96.0658 118° Southeast 93 107 3,000  Climbing Fort Worth Center
12:42PM 32.6283 -96.0344 117° Southeast 95 109 3,000  Level Fort Worth Center
12:43PM 32.6178 -96.0039 112° Southeast 97 112 3,000 -60 Level Fort Worth Center
12:44PM 32.6061 -95.9731 114° Southeast 96 110 2,900  Descending Fort Worth Center
12:45PM 32.5953 -95.9431 113° Southeast 97 112 3,100 60 Climbing Fort Worth Center
12:46PM 32.5872 -95.9092 106° East 97 112 3,100  Level Fort Worth Center
12:47PM 32.5800 -95.8775 105° East 99 114 3,100  Level Fort Worth Center
12:48PM 32.5692 -95.8467 113° Southeast 99 114 3,100 -60 Level Fort Worth Center
12:49PM 32.5597 -95.8128 108° East 100 115 3,000 -180 Descending Fort Worth Center
12:50PM 32.5486 -95.7814 113° Southeast 102 117 2,800 -300 Descending Fort Worth Center
12:51PM 32.5356 -95.7456 113° Southeast 110 127 2,400 -300 Descending Fort Worth Center
12:52PM 32.5264 -95.7150 110° East 104 120 2,300  Descending Fort Worth Center
12:53PM 32.5178 -95.6869 110° East 93 107 2,500 540 Climbing Fort Worth Center
12:54PM 32.5103 -95.6575 107° East 92 106 3,500 960 Climbing Fort Worth Center
12:56PM 32.4773 -95.6255 141° Southeast  Level FlightAware Approximate
01:03PM 32.3539 -95.4078 121° Southeast  Level FlightAware Approximate
01:04PM 32.3500 -95.4000 121° Southeast  Level FlightAware Approximate
01:05PM 32.3538 -95.4027 North  Level Estimated
01:06PM 32.3500 -95.4000 121° Southeast  Level FlightAware Approximate